Aeroporto :
LOGIN :

Iscrizione | Disclaimer

   EN    FR    IT 

 










Sommario :    VFR   VFR Marginale   IFR   IFR Intensivo   IFR Molto Intensivo
Visibilità : 
Base nubi : 
>= 8 km
>= 3000ft
5 / 8 km
1000 / 3000 ft
1500m / 5 km
500 / 1000 ft
800 / 1500m
200 / 500 ft
< 800m
< 200 ft
Simboli :   Temporali  Nebbia  Neve Forte  Precipitazioni Forti  Vento > 20 kt
SIGMETs :   Varie  Temporali  Ghiacco  Turbolenza  Onda orograficha  Ceneri Vulcaniche






- Altitudine del aeroporto : 11 ft
- Codice IATA : SXL


EISG - Sligo

ULTIMO METAR :
  • 081100Z 16004KT 100V240 CAVOK 18/10 Q1025

METARs OBSOLETI :
  • 081030Z 15005KT 120V190 CAVOK 17/11 Q1025
  • 081000Z 15004KT 080V210 CAVOK 16/11 Q1025
  • 080930Z 14004KT 080V200 CAVOK 16/11 Q1025
  • 080900Z VRB03KT CAVOK 15/11 Q1025
  • 080830Z VRB03KT CAVOK 15/12 Q1024

TAF TAF EISG
Valido dal 08 a 09 ore il 08 a 18 ore UTC


080800Z 0809/0818 11005KT 9999 FEW020



MetMap, La meteo Aeronautica in un colpo d'occhio ! - Copyright ORBIFLY Dicembre 2007 - Disclaimer

ORBIFLY MET'MAP TEAM :

Programmazione e sviluppo : Alexandra Zaïnal
Concezione : Baudouin d'Aumeries
Aiuto per la programmazione : Marc-Olivier Méhu
Supporto tecnico e logistico : Manuel Goepfert
Aiuto per la traduzione : Arnaldo La Scala

Contatto : metmap@orbifly.com




FONTI E CREDITI :

   NOAA